Time;durP1;ratioP1;P1;durP2;ratioP2;P2;SDS_P1;SDS_P2;PMS_P1;PMS_P2;Temp;Humidity;BMP_temperature;BMP_pressure;BME280_temperature;BME280_humidity;BME280_pressure;Samples;Min_cycle;Max_cycle;Signal;HPM_P1;HPM_P2
2022/09/24 00:01:21;;;;;;;;;;;10.40;99.90;;;;;;5047607;28;19951;-83
2022/09/24 00:03:54;;;;;;;;;;;10.40;99.90;;;;;;5051533;28;20102;-83
2022/09/24 00:06:20;;;;;;;;;;;10.40;99.90;;;;;;5045126;28;20422;-83
2022/09/24 00:08:47;;;;;;;;;;;10.40;99.90;;;;;;5036333;28;19908;-83
2022/09/24 00:11:13;;;;;;;;;;;10.40;99.90;;;;;;5045116;28;19917;-83
2022/09/24 00:13:39;;;;;;;;;;;10.40;99.90;;;;;;5048895;28;20391;-83
2022/09/24 00:16:07;;;;;;;;;;;10.30;99.90;;;;;;5048881;28;19917;-83
2022/09/24 00:18:33;;;;;;;;;;;10.30;99.90;;;;;;5039356;28;19920;-83
2022/09/24 00:20:58;;;;;;;;;;;10.30;99.90;;;;;;5048331;28;20339;-83
2022/09/24 00:23:24;;;;;;;;;;;10.30;99.90;;;;;;5041666;28;19913;-83
2022/09/24 00:28:34;;;;;;;;;;;10.40;99.90;;;;;;5048708;28;19923;-83
2022/09/24 00:31:03;;;;;;;;;;;10.40;99.90;;;;;;5035976;28;19920;-83
2022/09/24 00:33:28;;;;;;;;;;;10.30;99.90;;;;;;5046116;28;19909;-83
2022/09/24 00:35:57;;;;;;;;;;;10.30;99.90;;;;;;5045069;28;19915;-83
2022/09/24 00:38:24;;;;;;;;;;;10.30;99.90;;;;;;5043734;28;19905;-83
2022/09/24 00:40:49;;;;;;;;;;;10.30;99.90;;;;;;5042631;28;19909;-83
2022/09/24 00:43:24;;;;;;;;;;;10.30;99.90;;;;;;5055922;28;19931;-83
2022/09/24 00:45:51;;;;;;;;;;;10.30;99.90;;;;;;5047159;28;19951;-83
2022/09/24 00:48:17;;;;;;;;;;;10.30;99.90;;;;;;5058610;28;19920;-83
2022/09/24 00:50:42;;;;;;;;;;;10.40;99.90;;;;;;5045176;28;19909;-83
2022/09/24 00:53:14;;;;;;;;;;;10.40;99.90;;;;;;5048266;28;20613;-83
2022/09/24 00:55:41;;;;;;;;;;;10.30;99.90;;;;;;5041645;28;20064;-83
2022/09/24 00:58:07;;;;;;;;;;;10.30;99.90;;;;;;5039054;28;19920;-82
2022/09/24 01:00:35;;;;;;;;;;;10.30;99.90;;;;;;5037701;28;19957;-83
2022/09/24 01:03:03;;;;;;;;;;;10.40;99.90;;;;;;5046040;28;20387;-83
2022/09/24 01:05:29;;;;;;;;;;;10.30;99.90;;;;;;5049161;28;19913;-83
2022/09/24 01:07:55;;;;;;;;;;;10.40;99.90;;;;;;5048994;28;20433;-83
2022/09/24 01:13:15;;;;;;;;;;;10.40;99.90;;;;;;5048614;28;19931;-83
2022/09/24 01:15:45;;;;;;;;;;;10.50;99.90;;;;;;5052007;28;19993;-83
2022/09/24 01:18:10;;;;;;;;;;;10.40;99.90;;;;;;5043447;28;20391;-83
2022/09/24 01:20:50;;;;;;;;;;;10.40;99.90;;;;;;5052084;28;19912;-83
2022/09/24 01:23:25;;;;;;;;;;;10.50;99.90;;;;;;5050336;28;19924;-83
2022/09/24 01:25:53;;;;;;;;;;;10.50;99.90;;;;;;5045829;28;20269;-83
2022/09/24 01:28:24;;;;;;;;;;;10.60;99.90;;;;;;5052158;28;19979;-84
2022/09/24 01:30:54;;;;;;;;;;;10.60;99.90;;;;;;5046125;28;19920;-83
2022/09/24 01:33:21;;;;;;;;;;;10.50;99.90;;;;;;5047795;28;19916;-83
2022/09/24 01:35:49;;;;;;;;;;;10.60;99.90;;;;;;5048244;28;19916;-83
2022/09/24 01:38:17;;;;;;;;;;;10.60;99.90;;;;;;5042119;28;19913;-83
2022/09/24 01:40:44;;;;;;;;;;;10.60;99.90;;;;;;5041217;28;19912;-83
2022/09/24 01:43:10;;;;;;;;;;;10.60;99.90;;;;;;5049845;28;19916;-84
2022/09/24 01:45:37;;;;;;;;;;;10.60;99.90;;;;;;5037838;28;20551;-83
2022/09/24 01:48:03;;;;;;;;;;;10.60;99.90;;;;;;5046071;28;20352;-83
2022/09/24 01:50:31;;;;;;;;;;;10.60;99.90;;;;;;5047779;28;19916;-83
2022/09/24 01:53:00;;;;;;;;;;;10.60;99.90;;;;;;5038782;28;19917;-83
2022/09/24 01:55:28;;;;;;;;;;;10.60;99.90;;;;;;5049047;28;19912;-83
2022/09/24 01:58:04;;;;;;;;;;;10.70;99.90;;;;;;5051265;28;19978;-83
2022/09/24 02:00:29;;;;;;;;;;;10.70;99.90;;;;;;5050825;28;20006;-83
2022/09/24 02:03:03;;;;;;;;;;;10.70;99.90;;;;;;5049480;28;20459;-83
2022/09/24 02:05:30;;;;;;;;;;;10.50;99.90;;;;;;5050182;28;19955;-83
2022/09/24 02:08:02;;;;;;;;;;;10.50;99.90;;;;;;5047092;28;19920;-82
2022/09/24 02:10:29;;;;;;;;;;;10.50;99.90;;;;;;5048078;28;19913;-83
2022/09/24 02:12:57;;;;;;;;;;;10.60;99.90;;;;;;5039491;28;20494;-83
2022/09/24 02:15:26;;;;;;;;;;;10.60;99.90;;;;;;5049957;28;19917;-83
2022/09/24 02:17:56;;;;;;;;;;;10.60;99.90;;;;;;5056303;28;19924;-83
2022/09/24 02:20:23;;;;;;;;;;;10.60;99.90;;;;;;5047615;28;19913;-84
2022/09/24 02:22:50;;;;;;;;;;;10.70;99.90;;;;;;5036360;28;19947;-83
2022/09/24 02:25:31;;;;;;;;;;;10.80;99.90;;;;;;5041573;28;19927;-83
2022/09/24 02:27:57;;;;;;;;;;;10.80;99.90;;;;;;5041451;28;19908;-83
2022/09/24 02:30:22;;;;;;;;;;;10.80;99.90;;;;;;5038979;28;20613;-82
2022/09/24 02:32:48;;;;;;;;;;;10.70;99.90;;;;;;5056041;28;19912;-83
2022/09/24 02:35:14;;;;;;;;;;;10.70;99.90;;;;;;5057740;28;19924;-83
2022/09/24 02:37:40;;;;;;;;;;;10.80;99.90;;;;;;5048414;28;19912;-83
2022/09/24 02:40:07;;;;;;;;;;;10.80;99.90;;;;;;5027769;28;19921;-82
2022/09/24 02:42:32;;;;;;;;;;;10.80;99.90;;;;;;5046823;28;19978;-83
2022/09/24 02:44:59;;;;;;;;;;;10.80;99.90;;;;;;5047426;28;20342;-83
2022/09/24 02:47:25;;;;;;;;;;;10.90;99.90;;;;;;5049195;28;20003;-82
2022/09/24 02:49:51;;;;;;;;;;;10.90;99.90;;;;;;5049934;28;19912;-82
2022/09/24 02:52:17;;;;;;;;;;;10.90;99.90;;;;;;5072235;28;19919;-83
2022/09/24 02:54:43;;;;;;;;;;;10.90;99.90;;;;;;5029228;28;20007;-83
2022/09/24 02:57:09;;;;;;;;;;;10.90;99.90;;;;;;5047842;28;19970;-83
2022/09/24 02:59:35;;;;;;;;;;;10.90;99.90;;;;;;5039582;28;19918;-83
2022/09/24 03:02:00;;;;;;;;;;;10.90;99.90;;;;;;5050326;28;19966;-83
2022/09/24 03:04:27;;;;;;;;;;;10.90;99.90;;;;;;5050167;28;20625;-83
2022/09/24 03:06:53;;;;;;;;;;;10.90;99.90;;;;;;5042822;28;19999;-83
2022/09/24 03:09:18;;;;;;;;;;;11.00;99.90;;;;;;5059336;28;20011;-83
2022/09/24 03:11:45;;;;;;;;;;;11.00;99.90;;;;;;5050298;28;20000;-82
2022/09/24 03:14:10;;;;;;;;;;;11.00;99.90;;;;;;5056688;28;19925;-83
2022/09/24 03:16:36;;;;;;;;;;;11.00;99.90;;;;;;5048733;28;19970;-83
2022/09/24 03:19:01;;;;;;;;;;;11.10;99.90;;;;;;5049509;28;19912;-83
2022/09/24 03:21:27;;;;;;;;;;;11.00;99.90;;;;;;5033534;28;19908;-83
2022/09/24 03:23:52;;;;;;;;;;;11.00;99.90;;;;;;5047238;28;19920;-83
2022/09/24 03:26:18;;;;;;;;;;;11.00;99.90;;;;;;5057385;28;20440;-82
2022/09/24 03:28:44;;;;;;;;;;;11.00;99.90;;;;;;5051147;28;19908;-82
2022/09/24 03:31:09;;;;;;;;;;;11.00;99.90;;;;;;5046293;28;19913;-82
2022/09/24 03:33:38;;;;;;;;;;;11.00;99.90;;;;;;5045567;28;19978;-83
2022/09/24 03:36:10;;;;;;;;;;;11.00;99.90;;;;;;5039249;28;20360;-83
2022/09/24 03:38:37;;;;;;;;;;;11.00;99.90;;;;;;5046038;28;19944;-83
2022/09/24 03:41:03;;;;;;;;;;;11.00;99.90;;;;;;5047620;28;20368;-83
2022/09/24 03:43:30;;;;;;;;;;;11.00;99.90;;;;;;5045571;28;19978;-83
2022/09/24 03:45:56;;;;;;;;;;;11.00;99.90;;;;;;5049369;28;20011;-83
2022/09/24 03:48:21;;;;;;;;;;;11.10;99.90;;;;;;5044037;28;20003;-83
2022/09/24 03:50:48;;;;;;;;;;;11.10;99.90;;;;;;5036965;28;19947;-82
2022/09/24 03:53:13;;;;;;;;;;;11.10;99.90;;;;;;5039233;28;19962;-83
2022/09/24 03:55:43;;;;;;;;;;;11.10;99.90;;;;;;5045654;28;19921;-83
2022/09/24 03:58:08;;;;;;;;;;;11.10;99.90;;;;;;5056576;28;19909;-83
2022/09/24 04:00:34;;;;;;;;;;;11.10;99.90;;;;;;5045771;28;21027;-83
2022/09/24 04:02:59;;;;;;;;;;;11.10;99.90;;;;;;5049493;28;20388;-83
2022/09/24 04:05:25;;;;;;;;;;;11.00;99.90;;;;;;5046134;28;19921;-83
2022/09/24 04:07:50;;;;;;;;;;;11.10;99.90;;;;;;5037604;28;19912;-83
2022/09/24 04:10:16;;;;;;;;;;;11.00;99.90;;;;;;5046959;28;19927;-83
2022/09/24 04:12:42;;;;;;;;;;;11.10;99.90;;;;;;5041839;28;19917;-83
2022/09/24 04:15:08;;;;;;;;;;;11.10;99.90;;;;;;5049226;28;20003;-83
2022/09/24 04:17:34;;;;;;;;;;;11.00;99.90;;;;;;5041932;28;20066;-83
2022/09/24 04:20:00;;;;;;;;;;;11.10;99.90;;;;;;5044466;28;19924;-83
2022/09/24 04:22:28;;;;;;;;;;;11.10;99.90;;;;;;5047446;28;20364;-83
2022/09/24 04:24:54;;;;;;;;;;;11.10;99.90;;;;;;5045069;28;19916;-83
2022/09/24 04:27:20;;;;;;;;;;;11.10;99.90;;;;;;5038392;28;20016;-83
2022/09/24 04:29:46;;;;;;;;;;;11.20;99.90;;;;;;5046466;28;20406;-83
2022/09/24 04:32:11;;;;;;;;;;;11.10;99.90;;;;;;5047877;28;19916;-84
2022/09/24 04:34:37;;;;;;;;;;;11.10;99.90;;;;;;5036789;28;19920;-82
2022/09/24 04:37:02;;;;;;;;;;;11.10;99.90;;;;;;5048607;28;19920;-82
2022/09/24 04:39:28;;;;;;;;;;;11.10;99.90;;;;;;5045115;28;20002;-82
2022/09/24 04:41:53;;;;;;;;;;;11.10;99.90;;;;;;5049121;28;20279;-82
2022/09/24 04:44:19;;;;;;;;;;;11.10;99.90;;;;;;5052487;28;19917;-82
2022/09/24 04:46:44;;;;;;;;;;;11.20;99.90;;;;;;5049349;28;19927;-82
2022/09/24 04:49:10;;;;;;;;;;;11.20;99.90;;;;;;5065763;28;20016;-82
2022/09/24 04:51:36;;;;;;;;;;;11.30;99.90;;;;;;5038779;28;19924;-82
2022/09/24 04:54:02;;;;;;;;;;;11.30;99.90;;;;;;5048219;28;20213;-82
2022/09/24 04:56:28;;;;;;;;;;;11.30;99.90;;;;;;5050378;28;19954;-82
2022/09/24 04:58:53;;;;;;;;;;;11.40;99.90;;;;;;5052441;28;19920;-81
2022/09/24 05:01:19;;;;;;;;;;;11.30;99.90;;;;;;5024134;28;19917;-82
2022/09/24 05:03:45;;;;;;;;;;;11.30;99.90;;;;;;5030374;28;20438;-82
2022/09/24 05:06:11;;;;;;;;;;;11.30;99.90;;;;;;5029189;28;19956;-82
2022/09/24 05:08:36;;;;;;;;;;;11.20;99.90;;;;;;5045798;28;20573;-82
2022/09/24 05:11:01;;;;;;;;;;;11.30;99.90;;;;;;5029348;28;19928;-84
2022/09/24 05:13:27;;;;;;;;;;;11.20;99.90;;;;;;5031737;28;19958;-82
2022/09/24 05:15:53;;;;;;;;;;;11.30;99.90;;;;;;5026080;28;20285;-82
2022/09/24 05:18:18;;;;;;;;;;;11.40;99.90;;;;;;5045879;28;20349;-81
2022/09/24 05:20:44;;;;;;;;;;;11.50;99.90;;;;;;5028728;28;20004;-82
2022/09/24 05:23:09;;;;;;;;;;;11.50;99.90;;;;;;5032221;28;19920;-82
2022/09/24 05:27:07;;;;;;;;;;;11.40;99.90;;;;;;5045021;28;19913;-81
2022/09/24 05:28:20;;;;;;;;;;;11.40;99.90;;;;;;5030163;28;19959;-82
2022/09/24 05:30:46;;;;;;;;;;;11.40;99.90;;;;;;5051468;28;20280;-82
2022/09/24 05:33:12;;;;;;;;;;;11.40;99.90;;;;;;5047771;28;19986;-82
2022/09/24 05:35:37;;;;;;;;;;;11.30;99.90;;;;;;5051726;28;19912;-82
2022/09/24 05:38:03;;;;;;;;;;;11.40;99.90;;;;;;5048010;28;19917;-82
2022/09/24 05:40:46;;;;;;;;;;;11.30;99.90;;;;;;5047785;28;20022;-82
2022/09/24 05:43:12;;;;;;;;;;;11.40;99.90;;;;;;5046445;28;19924;-82
2022/09/24 05:45:38;;;;;;;;;;;11.40;99.90;;;;;;5066922;28;19897;-83
2022/09/24 05:48:04;;;;;;;;;;;11.40;99.90;;;;;;5060859;28;20140;-81
2022/09/24 05:50:31;;;;;;;;;;;11.50;99.90;;;;;;5047499;28;19995;-82
2022/09/24 05:52:57;;;;;;;;;;;11.50;99.90;;;;;;5045832;28;20380;-81
2022/09/24 05:55:22;;;;;;;;;;;11.50;99.90;;;;;;5048409;28;19920;-82
2022/09/24 05:57:48;;;;;;;;;;;11.60;99.90;;;;;;5051440;28;19909;-82
2022/09/24 06:00:13;;;;;;;;;;;11.60;99.90;;;;;;5046413;28;19912;-82
2022/09/24 06:02:39;;;;;;;;;;;11.60;99.90;;;;;;5042918;28;19916;-81
2022/09/24 06:05:05;;;;;;;;;;;11.60;99.90;;;;;;5046693;28;19913;-82
2022/09/24 06:07:30;;;;;;;;;;;11.60;99.90;;;;;;5040742;28;19908;-82
2022/09/24 06:09:58;;;;;;;;;;;11.60;99.90;;;;;;5049913;28;19956;-82
2022/09/24 06:12:24;;;;;;;;;;;11.60;99.90;;;;;;5047023;28;19923;-82
2022/09/24 06:14:49;;;;;;;;;;;11.60;99.90;;;;;;5039182;28;19936;-82
2022/09/24 06:17:15;;;;;;;;;;;11.60;99.90;;;;;;5040441;28;19913;-83
2022/09/24 06:19:40;;;;;;;;;;;11.50;99.90;;;;;;5054973;28;20051;-82
2022/09/24 06:22:06;;;;;;;;;;;11.60;99.90;;;;;;5036884;28;20257;-82
2022/09/24 06:24:31;;;;;;;;;;;11.60;99.90;;;;;;5048214;28;19959;-82
2022/09/24 06:26:57;;;;;;;;;;;11.70;99.90;;;;;;5040160;28;19956;-82
2022/09/24 06:29:23;;;;;;;;;;;11.70;99.90;;;;;;5037597;28;19950;-82
2022/09/24 06:31:48;;;;;;;;;;;11.70;99.90;;;;;;5039895;28;20382;-83
2022/09/24 06:34:14;;;;;;;;;;;11.80;99.90;;;;;;5040292;28;19929;-82
2022/09/24 06:36:40;;;;;;;;;;;11.70;99.90;;;;;;5048000;28;19948;-82
2022/09/24 06:39:06;;;;;;;;;;;11.70;99.90;;;;;;5040092;28;20419;-82
2022/09/24 06:41:31;;;;;;;;;;;11.80;99.90;;;;;;5049135;28;19920;-82
2022/09/24 06:43:57;;;;;;;;;;;11.80;99.90;;;;;;5050398;28;19916;-82
2022/09/24 06:46:24;;;;;;;;;;;11.80;99.90;;;;;;5036532;28;19916;-82
2022/09/24 06:48:50;;;;;;;;;;;11.90;99.90;;;;;;5041723;28;19909;-82
2022/09/24 06:51:15;;;;;;;;;;;11.90;99.90;;;;;;5046770;28;20412;-82
2022/09/24 06:53:41;;;;;;;;;;;11.90;99.90;;;;;;5043622;28;19913;-82
2022/09/24 06:56:06;;;;;;;;;;;11.90;99.90;;;;;;5049058;28;19913;-83
2022/09/24 06:58:32;;;;;;;;;;;11.90;99.90;;;;;;5049960;28;19912;-82
2022/09/24 07:01:00;;;;;;;;;;;11.90;99.90;;;;;;5040272;28;19920;-82
2022/09/24 07:03:26;;;;;;;;;;;11.90;99.90;;;;;;5041764;28;19925;-83
2022/09/24 07:05:52;;;;;;;;;;;11.80;99.90;;;;;;5047481;28;20439;-85
2022/09/24 07:08:17;;;;;;;;;;;11.90;99.90;;;;;;5048305;28;20126;-75
2022/09/24 07:10:48;;;;;;;;;;;11.90;99.90;;;;;;5042826;28;19919;-75
2022/09/24 07:13:13;;;;;;;;;;;11.90;99.90;;;;;;5037857;28;20618;-75
2022/09/24 07:15:40;;;;;;;;;;;11.90;99.90;;;;;;5045441;28;19913;-75
2022/09/24 07:18:05;;;;;;;;;;;11.90;99.90;;;;;;5034428;28;19916;-83
2022/09/24 07:20:32;;;;;;;;;;;12.00;99.90;;;;;;5037620;28;19921;-85
2022/09/24 07:22:57;;;;;;;;;;;11.90;99.90;;;;;;5048951;28;19921;-83
2022/09/24 07:25:23;;;;;;;;;;;12.00;99.90;;;;;;5057883;28;19962;-84
2022/09/24 07:27:48;;;;;;;;;;;12.00;99.90;;;;;;5038189;28;19932;-83
2022/09/24 07:30:14;;;;;;;;;;;12.10;99.90;;;;;;5045780;28;19908;-84
2022/09/24 07:32:40;;;;;;;;;;;12.10;99.90;;;;;;5045730;28;19919;-84
2022/09/24 07:35:05;;;;;;;;;;;12.10;99.90;;;;;;5034753;28;19956;-82
2022/09/24 07:37:32;;;;;;;;;;;12.20;99.90;;;;;;5044658;28;19926;-83
2022/09/24 07:39:57;;;;;;;;;;;12.10;99.90;;;;;;5041814;28;20411;-83
2022/09/24 07:42:24;;;;;;;;;;;12.10;99.90;;;;;;5050318;28;19928;-83
2022/09/24 07:44:50;;;;;;;;;;;12.20;99.90;;;;;;5039592;28;19935;-83
2022/09/24 07:47:15;;;;;;;;;;;12.20;99.90;;;;;;5037788;28;20368;-84
2022/09/24 07:49:41;;;;;;;;;;;12.20;99.90;;;;;;5035730;28;20327;-84
2022/09/24 07:52:07;;;;;;;;;;;12.20;99.90;;;;;;5046877;28;19943;-83
2022/09/24 07:54:32;;;;;;;;;;;12.20;99.90;;;;;;5048630;28;19909;-83
2022/09/24 07:56:59;;;;;;;;;;;12.20;99.90;;;;;;5040017;28;20079;-85
2022/09/24 07:59:24;;;;;;;;;;;12.20;99.90;;;;;;5033484;28;19936;-83
2022/09/24 08:01:50;;;;;;;;;;;12.20;99.90;;;;;;5048150;28;20015;-83
2022/09/24 08:04:17;;;;;;;;;;;12.20;99.90;;;;;;5055987;28;19921;-83
2022/09/24 08:06:42;;;;;;;;;;;12.20;99.90;;;;;;5035268;28;20483;-83
2022/09/24 08:09:07;;;;;;;;;;;12.30;99.90;;;;;;5037120;28;19948;-86
2022/09/24 08:11:33;;;;;;;;;;;12.40;99.90;;;;;;5044749;28;20017;-87
2022/09/24 08:13:59;;;;;;;;;;;12.40;99.90;;;;;;5026488;28;20504;-85
2022/09/24 08:16:25;;;;;;;;;;;12.50;99.90;;;;;;5041684;28;19944;-86
2022/09/24 08:18:51;;;;;;;;;;;12.60;99.90;;;;;;5045301;28;19916;-85
2022/09/24 08:21:17;;;;;;;;;;;12.70;99.90;;;;;;5040952;28;19912;-86
2022/09/24 08:23:43;;;;;;;;;;;12.90;99.90;;;;;;5037595;28;20288;-83
2022/09/24 08:26:09;;;;;;;;;;;13.00;99.90;;;;;;5041026;28;19964;-82
2022/09/24 08:28:35;;;;;;;;;;;13.20;99.90;;;;;;5039279;28;19913;-82
2022/09/24 08:31:02;;;;;;;;;;;13.30;99.90;;;;;;5036616;28;19917;-83
2022/09/24 08:33:30;;;;;;;;;;;13.20;99.90;;;;;;5049641;28;19918;-82
2022/09/24 08:35:57;;;;;;;;;;;13.10;99.90;;;;;;5047108;28;19916;-83
2022/09/24 08:38:23;;;;;;;;;;;13.20;99.90;;;;;;5067043;28;20274;-87
2022/09/24 08:41:13;;;;;;;;;;;13.10;99.90;;;;;;5053634;28;20016;-95
2022/09/24 08:43:38;;;;;;;;;;;13.30;99.90;;;;;;5048548;28;19963;-82
2022/09/24 08:48:55;;;;;;;;;;;13.40;99.90;;;;;;5051229;28;19916;-83
2022/09/24 08:51:21;;;;;;;;;;;13.90;99.90;;;;;;5038322;28;19920;-82
2022/09/24 08:53:52;;;;;;;;;;;13.90;99.90;;;;;;5047451;28;19963;-83
2022/09/24 08:56:20;;;;;;;;;;;14.00;99.90;;;;;;5039464;28;19916;-83
2022/09/24 08:58:57;;;;;;;;;;;14.20;99.90;;;;;;5042804;28;19921;-83
2022/09/24 09:01:22;;;;;;;;;;;14.40;99.90;;;;;;5044543;28;19927;-84
2022/09/24 09:03:50;;;;;;;;;;;14.30;99.90;;;;;;5043501;28;19913;-83
2022/09/24 09:06:21;;;;;;;;;;;14.20;99.90;;;;;;5054193;28;19998;-83
2022/09/24 09:08:55;;;;;;;;;;;14.00;99.90;;;;;;5040110;28;19912;-83
2022/09/24 09:11:23;;;;;;;;;;;13.80;99.90;;;;;;5046774;28;19915;-85
2022/09/24 09:13:56;;;;;;;;;;;13.70;99.90;;;;;;5037939;28;19938;-84
2022/09/24 09:16:28;;;;;;;;;;;13.80;99.90;;;;;;5032589;28;20373;-84
2022/09/24 09:19:03;;;;;;;;;;;14.00;99.90;;;;;;5041782;28;19920;-83
2022/09/24 09:21:51;;;;;;;;;;;14.10;99.90;;;;;;5052086;28;19912;-83
2022/09/24 09:24:19;;;;;;;;;;;14.20;99.90;;;;;;5047945;28;19921;-84
2022/09/24 09:26:47;;;;;;;;;;;13.90;99.90;;;;;;5040073;28;20293;-84
2022/09/24 09:29:12;;;;;;;;;;;13.90;99.90;;;;;;5040276;28;19913;-84
2022/09/24 09:31:44;;;;;;;;;;;13.60;99.90;;;;;;5030469;28;19923;-85
2022/09/24 09:34:28;;;;;;;;;;;13.50;99.90;;;;;;5031950;28;20498;-84
2022/09/24 09:36:57;;;;;;;;;;;13.50;99.90;;;;;;5035721;28;19909;-85
2022/09/24 09:39:22;;;;;;;;;;;13.40;99.90;;;;;;5045616;28;20293;-85
2022/09/24 09:41:57;;;;;;;;;;;13.60;99.90;;;;;;5036601;28;19912;-82
2022/09/24 09:44:28;;;;;;;;;;;13.60;99.90;;;;;;5047647;28;19924;-85
2022/09/24 09:47:05;;;;;;;;;;;13.60;99.90;;;;;;5038302;28;20296;-84
2022/09/24 09:49:34;;;;;;;;;;;13.40;99.90;;;;;;5032368;28;19917;-89
2022/09/24 09:52:02;;;;;;;;;;;13.30;99.90;;;;;;5040423;28;19919;-84
2022/09/24 09:54:38;;;;;;;;;;;13.30;99.90;;;;;;5048426;28;19912;-83
2022/09/24 09:57:05;;;;;;;;;;;13.40;99.90;;;;;;5041532;28;20368;-83
2022/09/24 09:59:33;;;;;;;;;;;13.60;99.90;;;;;;5036415;28;19999;-84
2022/09/24 10:01:58;;;;;;;;;;;13.40;99.90;;;;;;5038727;28;20342;-83
2022/09/24 10:04:30;;;;;;;;;;;13.40;99.90;;;;;;5036327;28;20025;-79
2022/09/24 10:07:10;;;;;;;;;;;13.30;99.90;;;;;;5042375;28;20005;-87
2022/09/24 10:09:36;;;;;;;;;;;13.10;99.90;;;;;;5048825;28;20453;-87
2022/09/24 10:12:06;;;;;;;;;;;13.10;99.90;;;;;;5042300;28;19934;-87
2022/09/24 10:14:32;;;;;;;;;;;13.20;99.90;;;;;;5034236;28;19920;-87
2022/09/24 10:17:04;;;;;;;;;;;13.40;99.90;;;;;;5043094;28;19909;-87
2022/09/24 10:19:31;;;;;;;;;;;13.50;99.90;;;;;;5050815;28;20379;-87
2022/09/24 10:21:56;;;;;;;;;;;13.50;99.90;;;;;;5043471;28;19920;-86
2022/09/24 10:24:24;;;;;;;;;;;13.70;99.90;;;;;;5043821;28;19913;-86
2022/09/24 10:26:50;;;;;;;;;;;13.80;99.90;;;;;;5048691;28;20004;-87
2022/09/24 10:32:02;;;;;;;;;;;13.80;99.90;;;;;;5041728;28;19935;-86
2022/09/24 10:34:28;;;;;;;;;;;13.90;99.90;;;;;;5041151;28;19919;-86
2022/09/24 10:36:58;;;;;;;;;;;14.20;99.90;;;;;;5043524;28;19913;-87
2022/09/24 10:39:23;;;;;;;;;;;14.00;99.90;;;;;;5033102;28;19931;-82
2022/09/24 10:41:50;;;;;;;;;;;13.90;99.90;;;;;;5041447;28;20380;-79
2022/09/24 10:44:16;;;;;;;;;;;14.00;99.90;;;;;;5042169;28;19960;-80
2022/09/24 10:47:03;;;;;;;;;;;14.00;99.90;;;;;;5023116;28;19923;-81
2022/09/24 10:49:47;;;;;;;;;;;14.20;99.90;;;;;;5042456;28;19928;-80
2022/09/24 10:52:31;;;;;;;;;;;14.40;99.90;;;;;;5045969;28;19967;-80
2022/09/24 10:54:59;;;;;;;;;;;14.40;99.90;;;;;;5046289;28;19923;-79
2022/09/24 10:57:44;;;;;;;;;;;14.50;99.90;;;;;;5034579;28;20203;-79
2022/09/24 11:00:32;;;;;;;;;;;14.50;99.90;;;;;;5044923;28;19916;-78
2022/09/24 11:03:00;;;;;;;;;;;14.60;99.90;;;;;;5036870;28;19955;-75
2022/09/24 11:05:32;;;;;;;;;;;14.60;99.90;;;;;;5048966;28;19935;-81
2022/09/24 11:08:03;;;;;;;;;;;14.70;99.90;;;;;;5040349;28;19909;-78
2022/09/24 11:10:42;;;;;;;;;;;14.70;99.90;;;;;;5046966;28;19920;-79
2022/09/24 11:13:25;;;;;;;;;;;14.70;99.90;;;;;;5041099;28;19912;-79
2022/09/24 11:16:09;;;;;;;;;;;14.80;99.90;;;;;;5040828;28;19909;-79
2022/09/24 11:18:53;;;;;;;;;;;15.00;99.90;;;;;;5044733;28;19917;-79
2022/09/24 11:21:31;;;;;;;;;;;14.90;99.90;;;;;;5043420;28;19913;-78
2022/09/24 11:24:03;;;;;;;;;;;15.10;99.90;;;;;;5047506;28;19942;-78
2022/09/24 11:26:47;;;;;;;;;;;15.40;99.90;;;;;;5041714;28;20068;-78
2022/09/24 11:29:16;;;;;;;;;;;15.10;99.90;;;;;;5046165;28;19930;-78
2022/09/24 11:31:51;;;;;;;;;;;15.10;99.90;;;;;;5041361;28;19917;-78
2022/09/24 11:34:19;;;;;;;;;;;15.40;99.90;;;;;;5038562;28;19967;-78
2022/09/24 11:36:51;;;;;;;;;;;15.10;99.90;;;;;;5037255;28;19913;-78
2022/09/24 11:39:23;;;;;;;;;;;14.70;99.90;;;;;;5043600;28;19917;-81
2022/09/24 11:42:07;;;;;;;;;;;14.70;99.90;;;;;;5056713;28;19913;-81
2022/09/24 11:44:53;;;;;;;;;;;14.60;99.90;;;;;;5047046;28;19917;-80
2022/09/24 11:47:25;;;;;;;;;;;14.70;99.90;;;;;;5018774;28;19975;-82
2022/09/24 11:50:10;;;;;;;;;;;14.60;99.90;;;;;;5038474;28;20374;-83
2022/09/24 11:52:39;;;;;;;;;;;14.50;99.90;;;;;;5031593;28;19959;-81
2022/09/24 11:55:11;;;;;;;;;;;14.50;99.90;;;;;;5037995;28;19913;-82
2022/09/24 11:57:40;;;;;;;;;;;14.60;99.90;;;;;;5040182;28;20344;-76
2022/09/24 12:00:16;;;;;;;;;;;14.50;99.90;;;;;;5049096;28;19912;-75
2022/09/24 12:03:17;;;;;;;;;;;14.20;99.90;;;;;;5043865;28;20003;-76
2022/09/24 12:05:45;;;;;;;;;;;14.10;99.90;;;;;;5016504;28;20399;-76
2022/09/24 12:08:17;;;;;;;;;;;14.10;99.90;;;;;;5026845;28;19908;-77
2022/09/24 12:10:51;;;;;;;;;;;14.00;99.90;;;;;;5048488;28;19908;-76
2022/09/24 12:13:17;;;;;;;;;;;14.10;99.90;;;;;;5041393;28;19919;-76
2022/09/24 12:16:01;;;;;;;;;;;14.10;99.90;;;;;;5045655;28;19912;-76
2022/09/24 12:18:27;;;;;;;;;;;14.00;99.90;;;;;;5044876;28;19950;-76
2022/09/24 12:20:52;;;;;;;;;;;13.80;99.90;;;;;;5047531;28;19952;-76
2022/09/24 12:23:21;;;;;;;;;;;13.60;99.90;;;;;;5044486;28;19914;-76
2022/09/24 12:25:48;;;;;;;;;;;13.60;99.90;;;;;;5041259;28;19920;-77
2022/09/24 12:32:52;;;;;;;;;;;13.80;99.90;;;;;;5046247;28;19915;-75
2022/09/24 12:33:57;;;;;;;;;;;14.20;99.90;;;;;;5048725;28;19919;-75
2022/09/24 12:36:33;;;;;;;;;;;14.50;99.90;;;;;;5047522;28;19951;-75
2022/09/24 12:39:06;;;;;;;;;;;14.20;99.90;;;;;;5040957;28;19965;-75
2022/09/24 12:41:38;;;;;;;;;;;14.60;99.90;;;;;;5047156;28;19913;-76
2022/09/24 12:44:09;;;;;;;;;;;14.70;99.90;;;;;;5030593;28;19917;-80
2022/09/24 12:46:43;;;;;;;;;;;14.70;99.90;;;;;;5035957;28;19916;-80
2022/09/24 12:49:17;;;;;;;;;;;14.70;99.90;;;;;;5048356;28;19939;-79
2022/09/24 12:51:43;;;;;;;;;;;14.60;99.90;;;;;;5040799;28;20043;-79
2022/09/24 12:54:18;;;;;;;;;;;14.30;99.90;;;;;;5040857;28;19943;-79
2022/09/24 12:56:44;;;;;;;;;;;14.30;99.90;;;;;;5047219;28;20000;-79
2022/09/24 12:59:23;;;;;;;;;;;14.40;99.90;;;;;;5043230;28;19992;-79
2022/09/24 13:01:48;;;;;;;;;;;14.60;99.90;;;;;;5041294;28;19917;-79
2022/09/24 13:04:14;;;;;;;;;;;14.80;99.90;;;;;;5049103;28;19953;-80
2022/09/24 13:06:40;;;;;;;;;;;14.70;99.90;;;;;;5041950;28;20399;-79
2022/09/24 13:09:24;;;;;;;;;;;14.70;99.90;;;;;;5051006;28;19917;-79
2022/09/24 13:12:00;;;;;;;;;;;14.50;99.90;;;;;;5042597;28;19940;-80
2022/09/24 13:14:28;;;;;;;;;;;14.40;99.90;;;;;;5042477;28;19913;-79
2022/09/24 13:16:54;;;;;;;;;;;14.20;99.90;;;;;;5044116;28;19920;-79
2022/09/24 13:19:24;;;;;;;;;;;14.00;99.90;;;;;;5057083;28;19919;-80
2022/09/24 13:21:53;;;;;;;;;;;13.90;99.90;;;;;;5049682;28;19917;-81
2022/09/24 13:24:36;;;;;;;;;;;13.80;99.90;;;;;;5051294;28;19972;-80
2022/09/24 13:27:28;;;;;;;;;;;13.80;99.90;;;;;;5033810;28;19912;-79
2022/09/24 13:30:15;;;;;;;;;;;13.80;99.90;;;;;;5039854;28;19921;-86
2022/09/24 13:32:52;;;;;;;;;;;13.80;99.90;;;;;;5045464;28;19916;-89
2022/09/24 13:35:21;;;;;;;;;;;13.90;99.90;;;;;;5033507;28;19927;-88
2022/09/24 13:37:52;;;;;;;;;;;13.80;99.90;;;;;;5044141;28;19917;-88
2022/09/24 13:40:20;;;;;;;;;;;13.70;99.90;;;;;;5046177;28;19912;-87
2022/09/24 13:42:53;;;;;;;;;;;13.70;99.90;;;;;;5039201;28;19921;-87
2022/09/24 13:45:20;;;;;;;;;;;13.70;99.90;;;;;;5050092;28;20408;-87
2022/09/24 13:47:46;;;;;;;;;;;13.70;99.90;;;;;;5051390;28;20506;-88
2022/09/24 13:50:14;;;;;;;;;;;13.80;99.90;;;;;;5046636;28;20047;-87
2022/09/24 13:52:44;;;;;;;;;;;14.00;99.90;;;;;;5049079;28;20003;-89
2022/09/24 13:55:19;;;;;;;;;;;14.00;99.90;;;;;;5046125;28;19967;-88
2022/09/24 13:57:45;;;;;;;;;;;14.20;99.90;;;;;;5052326;28;19912;-87
2022/09/24 14:00:15;;;;;;;;;;;14.20;99.90;;;;;;5038229;28;20410;-88
2022/09/24 14:02:42;;;;;;;;;;;14.30;99.90;;;;;;5019172;28;19918;-87
2022/09/24 14:05:14;;;;;;;;;;;14.30;99.90;;;;;;5016248;28;19917;-87
2022/09/24 14:07:40;;;;;;;;;;;14.30;99.90;;;;;;5022318;28;20008;-88
2022/09/24 14:10:11;;;;;;;;;;;14.10;99.90;;;;;;5014406;28;19996;-87
2022/09/24 14:12:37;;;;;;;;;;;13.90;99.90;;;;;;5031688;28;19917;-88
2022/09/24 14:15:07;;;;;;;;;;;14.10;99.90;;;;;;5023018;28;20332;-87
2022/09/24 14:17:32;;;;;;;;;;;14.00;99.90;;;;;;5021645;28;20023;-87
2022/09/24 14:19:58;;;;;;;;;;;13.80;99.90;;;;;;5028817;28;20390;-86
2022/09/24 14:22:29;;;;;;;;;;;14.00;99.90;;;;;;5022705;28;19959;-87
2022/09/24 14:25:15;;;;;;;;;;;14.00;99.90;;;;;;5023134;28;19925;-87
2022/09/24 14:27:45;;;;;;;;;;;13.90;99.90;;;;;;5015984;28;20280;-87
2022/09/24 14:30:20;;;;;;;;;;;13.90;99.90;;;;;;5016976;28;20277;-85
2022/09/24 14:32:49;;;;;;;;;;;14.00;99.90;;;;;;5008723;28;20012;-89
2022/09/24 14:35:19;;;;;;;;;;;14.20;99.90;;;;;;5009527;28;19921;-90
2022/09/24 14:37:50;;;;;;;;;;;14.30;99.90;;;;;;5021215;28;20297;-90
2022/09/24 14:40:17;;;;;;;;;;;14.20;99.90;;;;;;5024396;28;19910;-92